Time;durP1;ratioP1;P1;durP2;ratioP2;P2;SDS_P1;SDS_P2;PMS_P1;PMS_P2;Temp;Humidity;BMP_temperature;BMP_pressure;BME280_temperature;BME280_humidity;BME280_pressure;Samples;Min_cycle;Max_cycle;Signal;HPM_P1;HPM_P2
2021/01/25 00:00:29;;;;;;;10.38;7.00;;;;;;;;;;5092769;28;20274;-75
2021/01/25 00:03:02;;;;;;;11.68;7.65;;;;;;;;;;5095888;28;20320;-75
2021/01/25 00:05:37;;;;;;;12.10;7.95;;;;;;;;;;5095942;28;20296;-75
2021/01/25 00:08:10;;;;;;;9.07;6.75;;;;;;;;;;5091282;28;20575;-76
2021/01/25 00:10:43;;;;;;;9.02;7.25;;;;;;;;;;5091741;28;20290;-75
2021/01/25 00:13:16;;;;;;;9.50;6.90;;;;;;;;;;5093927;28;20230;-75
2021/01/25 00:15:49;;;;;;;9.82;6.80;;;;;;;;;;5092469;28;20205;-76
2021/01/25 00:18:22;;;;;;;10.23;6.47;;;;;;;;;;5093679;28;20215;-75
2021/01/25 00:20:55;;;;;;;8.00;7.20;;;;;;;;;;5094684;28;20558;-74
2021/01/25 00:23:28;;;;;;;9.25;7.32;;;;;;;;;;5095635;28;20227;-75
2021/01/25 00:26:01;;;;;;;9.00;7.53;;;;;;;;;;5095774;28;20377;-75
2021/01/25 00:28:34;;;;;;;7.07;6.38;;;;;;;;;;5095129;28;20718;-75
2021/01/25 00:31:07;;;;;;;9.25;7.70;;;;;;;;;;5091090;28;20230;-75
2021/01/25 00:33:40;;;;;;;8.38;6.78;;;;;;;;;;5092120;28;20210;-75
2021/01/25 00:36:12;;;;;;;10.20;6.80;;;;;;;;;;5093309;28;20251;-75
2021/01/25 00:38:45;;;;;;;9.52;7.32;;;;;;;;;;5093434;28;20198;-75
2021/01/25 00:41:18;;;;;;;8.63;6.65;;;;;;;;;;5093299;28;20284;-75
2021/01/25 00:43:52;;;;;;;13.77;7.00;;;;;;;;;;5095460;28;20232;-75
2021/01/25 00:46:24;;;;;;;7.85;6.47;;;;;;;;;;5095340;28;20208;-75
2021/01/25 00:48:57;;;;;;;10.48;7.47;;;;;;;;;;5095592;28;20288;-75
2021/01/25 00:51:30;;;;;;;9.23;7.28;;;;;;;;;;5093120;28;20671;-75
2021/01/25 00:54:03;;;;;;;9.07;6.65;;;;;;;;;;5090516;28;20194;-75
2021/01/25 00:56:35;;;;;;;8.15;6.70;;;;;;;;;;5092600;28;20795;-75
2021/01/25 00:59:09;;;;;;;10.48;6.20;;;;;;;;;;5092944;28;20201;-75
2021/01/25 01:01:42;;;;;;;7.43;6.65;;;;;;;;;;5092730;28;20201;-75
2021/01/25 01:04:14;;;;;;;9.52;7.30;;;;;;;;;;5093139;28;20224;-75
2021/01/25 01:06:47;;;;;;;8.50;6.15;;;;;;;;;;5094459;28;20198;-75
2021/01/25 01:09:20;;;;;;;8.30;6.47;;;;;;;;;;5074533;28;20293;-75
2021/01/25 01:11:53;;;;;;;7.47;6.50;;;;;;;;;;5073859;28;20279;-75
2021/01/25 01:14:26;;;;;;;11.10;6.43;;;;;;;;;;5070298;28;20673;-74
2021/01/25 01:16:59;;;;;;;8.48;6.78;;;;;;;;;;5070671;28;20261;-75
2021/01/25 01:19:32;;;;;;;9.00;7.35;;;;;;;;;;5072412;28;20247;-75
2021/01/25 01:22:05;;;;;;;12.55;6.85;;;;;;;;;;5072029;28;20218;-75
2021/01/25 01:24:38;;;;;;;7.68;5.85;;;;;;;;;;5072257;28;20219;-75
2021/01/25 01:27:11;;;;;;;7.45;5.90;;;;;;;;;;5073388;28;20674;-75
2021/01/25 01:29:44;;;;;;;8.68;5.55;;;;;;;;;;5073988;28;20251;-75
2021/01/25 01:32:17;;;;;;;9.93;6.18;;;;;;;;;;5074292;28;20218;-74
2021/01/25 01:34:50;;;;;;;8.25;6.10;;;;;;;;;;5073770;28;20198;-75
2021/01/25 01:37:23;;;;;;;7.75;5.63;;;;;;;;;;5069508;28;20285;-75
2021/01/25 01:39:56;;;;;;;7.72;6.28;;;;;;;;;;5070697;28;20205;-75
2021/01/25 01:42:28;;;;;;;9.77;5.63;;;;;;;;;;5071951;28;20248;-75
2021/01/25 01:45:02;;;;;;;8.40;5.95;;;;;;;;;;5071737;28;20221;-75
2021/01/25 01:47:36;;;;;;;6.75;5.43;;;;;;;;;;5071669;28;20655;-76
2021/01/25 01:50:10;;;;;;;7.00;5.07;;;;;;;;;;5073747;28;20194;-75
2021/01/25 01:52:43;;;;;;;6.20;5.60;;;;;;;;;;5073578;28;20240;-75
2021/01/25 01:55:16;;;;;;;9.18;6.53;;;;;;;;;;5073591;28;20648;-75
2021/01/25 01:57:51;;;;;;;8.93;6.05;;;;;;;;;;5071397;28;20199;-75
2021/01/25 02:00:24;;;;;;;6.07;5.03;;;;;;;;;;5069237;28;20292;-74
2021/01/25 02:02:57;;;;;;;8.45;6.78;;;;;;;;;;5070895;28;20233;-75
2021/01/25 02:05:30;;;;;;;11.85;7.07;;;;;;;;;;5071131;28;20281;-75
2021/01/25 02:08:03;;;;;;;8.10;5.80;;;;;;;;;;5080258;28;20225;-75
2021/01/25 02:10:37;;;;;;;10.32;6.22;;;;;;;;;;5092229;28;20194;-74
2021/01/25 02:13:10;;;;;;;12.35;6.43;;;;;;;;;;5093434;28;20638;-74
2021/01/25 02:15:44;;;;;;;8.38;5.93;;;;;;;;;;5093742;28;20673;-75
2021/01/25 02:18:16;;;;;;;7.35;5.80;;;;;;;;;;5093603;28;20593;-76
2021/01/25 02:20:49;;;;;;;7.18;5.85;;;;;;;;;;5089499;28;20212;-74
2021/01/25 02:23:31;;;;;;;6.38;5.78;;;;;;;;;;5089311;28;20297;-75
2021/01/25 02:26:06;;;;;;;8.93;6.35;;;;;;;;;;5090031;28;20248;-74
2021/01/25 02:28:40;;;;;;;8.35;6.03;;;;;;;;;;5091119;28;20193;-75
2021/01/25 02:31:13;;;;;;;8.55;6.25;;;;;;;;;;5091397;28;20204;-75
2021/01/25 02:33:47;;;;;;;8.25;6.07;;;;;;;;;;5092675;28;20275;-74
2021/01/25 02:36:20;;;;;;;7.45;5.95;;;;;;;;;;5093010;28;20313;-75
2021/01/25 02:38:54;;;;;;;6.47;5.82;;;;;;;;;;5093143;28;20204;-75
2021/01/25 02:41:28;;;;;;;7.63;5.80;;;;;;;;;;5091663;28;20194;-75
2021/01/25 02:44:03;;;;;;;6.07;5.40;;;;;;;;;;5088476;28;20563;-75
2021/01/25 02:46:37;;;;;;;9.27;5.95;;;;;;;;;;5089042;28;20204;-75
2021/01/25 02:49:09;;;;;;;9.57;6.20;;;;;;;;;;5090847;28;20201;-75
2021/01/25 02:51:42;;;;;;;7.93;5.90;;;;;;;;;;5090798;28;20250;-75
2021/01/25 02:54:15;;;;;;;8.75;5.65;;;;;;;;;;5091365;28;20194;-74
2021/01/25 02:56:48;;;;;;;7.70;6.10;;;;;;;;;;5092910;28;20198;-74
2021/01/25 02:59:22;;;;;;;7.57;6.05;;;;;;;;;;5092645;28;20208;-75
2021/01/25 03:01:55;;;;;;;7.53;5.70;;;;;;;;;;5092851;28;20578;-75
2021/01/25 03:04:28;;;;;;;7.53;5.57;;;;;;;;;;5089610;28;20214;-75
2021/01/25 03:07:01;;;;;;;9.38;6.45;;;;;;;;;;5088419;28;20624;-75
2021/01/25 03:09:34;;;;;;;7.65;6.15;;;;;;;;;;5070125;28;20632;-76
2021/01/25 03:12:07;;;;;;;6.47;5.63;;;;;;;;;;5069145;28;20221;-75
2021/01/25 03:14:44;;;;;;;7.38;6.07;;;;;;;;;;5070558;28;20266;-75
2021/01/25 03:17:17;;;;;;;6.50;5.75;;;;;;;;;;5071574;28;20244;-75
2021/01/25 03:19:50;;;;;;;9.85;6.95;;;;;;;;;;5072296;28;20270;-75
2021/01/25 03:22:23;;;;;;;7.28;5.95;;;;;;;;;;5072190;28;20635;-75
2021/01/25 03:24:55;;;;;;;8.73;6.43;;;;;;;;;;5071844;28;20313;-75
2021/01/25 03:27:28;;;;;;;8.68;6.20;;;;;;;;;;5068258;28;20216;-75
2021/01/25 03:30:02;;;;;;;8.48;6.07;;;;;;;;;;5068929;28;20208;-74
2021/01/25 03:32:34;;;;;;;9.60;6.78;;;;;;;;;;5069908;28;20753;-75
2021/01/25 03:35:09;;;;;;;7.10;6.40;;;;;;;;;;5070283;28;20233;-74
2021/01/25 03:37:42;;;;;;;7.45;6.28;;;;;;;;;;5074399;28;20197;-75
2021/01/25 03:40:15;;;;;;;8.68;6.25;;;;;;;;;;5076580;28;20201;-75
2021/01/25 03:42:48;;;;;;;8.68;6.90;;;;;;;;;;5076105;28;20222;-74
2021/01/25 03:45:21;;;;;;;8.15;6.80;;;;;;;;;;5076300;28;20272;-75
2021/01/25 03:47:54;;;;;;;7.97;6.63;;;;;;;;;;5074198;28;20239;-75
2021/01/25 03:50:27;;;;;;;8.73;6.75;;;;;;;;;;5072035;28;20297;-75
2021/01/25 03:53:01;;;;;;;10.60;7.20;;;;;;;;;;5073577;28;20752;-75
2021/01/25 03:55:33;;;;;;;7.38;6.60;;;;;;;;;;5073563;28;20205;-75
2021/01/25 03:58:06;;;;;;;8.93;7.13;;;;;;;;;;5073855;28;20198;-75
2021/01/25 04:00:40;;;;;;;12.10;8.48;;;;;;;;;;5074336;28;20233;-74
2021/01/25 04:03:13;;;;;;;9.63;7.45;;;;;;;;;;5075665;28;20590;-75
2021/01/25 04:05:46;;;;;;;9.70;7.80;;;;;;;;;;5075614;28;20194;-75
2021/01/25 04:08:19;;;;;;;10.43;8.05;;;;;;;;;;5085177;28;20229;-74
2021/01/25 04:10:51;;;;;;;9.88;7.55;;;;;;;;;;5092496;28;20284;-74
2021/01/25 04:13:24;;;;;;;12.65;8.25;;;;;;;;;;5091972;28;20216;-75
2021/01/25 04:15:58;;;;;;;12.23;8.60;;;;;;;;;;5093692;28;20233;-74
2021/01/25 04:18:31;;;;;;;9.32;8.18;;;;;;;;;;5093355;28;20201;-74
2021/01/25 04:21:04;;;;;;;10.80;9.25;;;;;;;;;;5093814;28;20284;-73
2021/01/25 04:23:37;;;;;;;13.77;8.93;;;;;;;;;;5094810;28;20218;-74
2021/01/25 04:26:10;;;;;;;11.10;8.13;;;;;;;;;;5095662;28;20219;-74
2021/01/25 04:28:44;;;;;;;11.60;9.10;;;;;;;;;;5095490;28;20227;-74
2021/01/25 04:31:17;;;;;;;13.00;8.70;;;;;;;;;;5095048;28;20193;-74
2021/01/25 04:33:50;;;;;;;14.75;8.57;;;;;;;;;;5091116;28;20270;-74
2021/01/25 04:36:25;;;;;;;11.85;9.30;;;;;;;;;;5092312;28;20292;-74
2021/01/25 04:38:58;;;;;;;10.70;8.68;;;;;;;;;;5093226;28;20208;-74
2021/01/25 04:41:31;;;;;;;13.85;9.80;;;;;;;;;;5093057;28;20292;-74
2021/01/25 04:44:04;;;;;;;11.15;8.95;;;;;;;;;;5093224;28;20584;-74
2021/01/25 04:46:38;;;;;;;18.27;8.98;;;;;;;;;;5095219;28;20208;-74
2021/01/25 04:49:12;;;;;;;12.82;9.02;;;;;;;;;;5095228;28;20205;-74
2021/01/25 04:51:45;;;;;;;12.98;9.20;;;;;;;;;;5094986;28;20654;-74
2021/01/25 04:54:18;;;;;;;12.30;9.10;;;;;;;;;;5091707;28;20277;-74
2021/01/25 04:56:52;;;;;;;11.27;9.35;;;;;;;;;;5090943;28;20193;-74
2021/01/25 04:59:24;;;;;;;13.32;10.80;;;;;;;;;;5092443;28;20208;-74
2021/01/25 05:01:58;;;;;;;13.90;9.35;;;;;;;;;;5092481;28;20218;-74
2021/01/25 05:04:31;;;;;;;17.77;11.10;;;;;;;;;;5092750;28;20690;-74
2021/01/25 05:07:04;;;;;;;14.15;10.38;;;;;;;;;;5093618;28;20662;-74
2021/01/25 05:09:37;;;;;;;13.15;9.90;;;;;;;;;;5093972;28;20705;-74
2021/01/25 05:12:10;;;;;;;10.52;9.00;;;;;;;;;;5094788;28;20245;-74
2021/01/25 05:14:43;;;;;;;12.88;9.70;;;;;;;;;;5094646;28;20226;-73
2021/01/25 05:17:17;;;;;;;16.80;9.55;;;;;;;;;;5090822;28;20202;-74
2021/01/25 05:19:50;;;;;;;14.35;10.93;;;;;;;;;;5091125;28;20204;-74
2021/01/25 05:22:25;;;;;;;12.05;9.10;;;;;;;;;;5092996;28;20581;-74
2021/01/25 05:24:58;;;;;;;18.38;11.63;;;;;;;;;;5092575;28;20213;-74
2021/01/25 05:27:32;;;;;;;13.65;10.13;;;;;;;;;;5093042;28;20292;-73
2021/01/25 05:30:08;;;;;;;13.70;10.15;;;;;;;;;;5094024;28;20280;-74
2021/01/25 05:32:46;;;;;;;13.70;10.65;;;;;;;;;;5093488;28;20231;-74
2021/01/25 05:35:20;;;;;;;17.30;9.45;;;;;;;;;;5094634;28;20236;-75
2021/01/25 05:37:54;;;;;;;15.43;11.38;;;;;;;;;;5092952;28;20198;-74
2021/01/25 05:40:28;;;;;;;16.58;12.10;;;;;;;;;;5089951;28;20211;-74
2021/01/25 05:43:01;;;;;;;15.65;10.48;;;;;;;;;;5090148;28;20577;-74
2021/01/25 05:45:34;;;;;;;13.00;10.02;;;;;;;;;;5090551;28;20213;-74
2021/01/25 05:48:08;;;;;;;12.15;9.55;;;;;;;;;;5091975;28;20410;-74
2021/01/25 05:50:42;;;;;;;17.98;12.35;;;;;;;;;;5092740;28;20202;-74
2021/01/25 05:53:14;;;;;;;13.80;9.75;;;;;;;;;;5092838;28;20223;-74
2021/01/25 05:55:47;;;;;;;16.45;11.50;;;;;;;;;;5093993;28;20254;-74
2021/01/25 05:58:21;;;;;;;14.65;11.05;;;;;;;;;;5093279;28;20282;-74
2021/01/25 06:00:53;;;;;;;16.00;11.38;;;;;;;;;;5090827;28;20186;-74
2021/01/25 06:03:28;;;;;;;18.10;12.05;;;;;;;;;;5089879;28;20232;-75
2021/01/25 06:06:01;;;;;;;17.20;12.27;;;;;;;;;;5091680;28;20558;-74
2021/01/25 06:08:41;;;;;;;13.60;10.50;;;;;;;;;;5090263;28;20280;-74
2021/01/25 06:11:18;;;;;;;16.83;12.15;;;;;;;;;;5087704;28;20225;-75
2021/01/25 06:13:53;;;;;;;14.90;11.50;;;;;;;;;;5087404;28;20233;-74
2021/01/25 06:16:27;;;;;;;15.50;11.05;;;;;;;;;;5092502;28;20204;-75
2021/01/25 06:19:01;;;;;;;20.40;12.30;;;;;;;;;;5092356;28;20200;-75
2021/01/25 06:21:37;;;;;;;16.58;12.30;;;;;;;;;;5092516;28;20220;-74
2021/01/25 06:24:11;;;;;;;19.17;11.75;;;;;;;;;;5088970;28;20261;-75
2021/01/25 06:26:46;;;;;;;17.23;12.82;;;;;;;;;;5090352;28;20197;-74
2021/01/25 06:29:20;;;;;;;13.82;11.48;;;;;;;;;;5091129;28;20292;-74
2021/01/25 06:31:54;;;;;;;15.68;11.70;;;;;;;;;;5091016;28;20213;-75
2021/01/25 06:34:28;;;;;;;17.67;12.23;;;;;;;;;;5090224;28;20562;-74
2021/01/25 06:37:01;;;;;;;13.65;11.70;;;;;;;;;;5093120;28;20784;-74
2021/01/25 06:39:34;;;;;;;14.00;11.10;;;;;;;;;;5093071;28;20650;-73
2021/01/25 06:42:07;;;;;;;14.32;11.10;;;;;;;;;;5092944;28;20300;-74
2021/01/25 06:44:46;;;;;;;14.40;11.27;;;;;;;;;;5090746;28;20578;-74
2021/01/25 06:47:20;;;;;;;16.00;11.77;;;;;;;;;;5088851;28;20224;-74
2021/01/25 06:49:54;;;;;;;19.58;13.25;;;;;;;;;;5090373;28;20655;-75
2021/01/25 06:52:28;;;;;;;17.50;12.77;;;;;;;;;;5090521;28;20222;-75
2021/01/25 06:55:01;;;;;;;20.73;13.20;;;;;;;;;;5091039;28;20287;-75
2021/01/25 06:57:34;;;;;;;17.55;13.75;;;;;;;;;;5091784;28;20202;-74
2021/01/25 07:00:09;;;;;;;17.85;12.25;;;;;;;;;;5090976;28;20189;-73
2021/01/25 07:02:51;;;;;;;17.13;12.45;;;;;;;;;;5088291;28;20223;-74
2021/01/25 07:05:27;;;;;;;24.25;12.48;;;;;;;;;;5088292;28;20540;-73
2021/01/25 07:08:09;;;;;;;19.02;13.70;;;;;;;;;;5089360;28;20492;-74
2021/01/25 07:10:48;;;;;;;17.00;12.20;;;;;;;;;;5088329;28;20575;-74
2021/01/25 07:13:21;;;;;;;16.20;12.55;;;;;;;;;;5091072;28;20708;-75
2021/01/25 07:15:55;;;;;;;21.02;14.48;;;;;;;;;;5091624;28;20193;-74
2021/01/25 07:18:28;;;;;;;22.13;14.40;;;;;;;;;;5092746;28;20197;-73
2021/01/25 07:21:02;;;;;;;20.67;15.77;;;;;;;;;;5092629;28;20246;-73
2021/01/25 07:23:38;;;;;;;19.88;14.63;;;;;;;;;;5089122;28;20217;-73
2021/01/25 07:26:11;;;;;;;18.67;13.82;;;;;;;;;;5088700;28;20192;-75
2021/01/25 07:28:45;;;;;;;18.20;14.85;;;;;;;;;;5089980;28;20201;-76
2021/01/25 07:31:17;;;;;;;22.80;15.60;;;;;;;;;;5089715;28;20200;-76
2021/01/25 07:33:50;;;;;;;20.75;14.98;;;;;;;;;;5090636;28;20236;-76
2021/01/25 07:36:22;;;;;;;21.08;14.57;;;;;;;;;;5089762;28;20221;-80
2021/01/25 07:38:55;;;;;;;19.80;14.65;;;;;;;;;;5091033;28;20217;-76
2021/01/25 07:41:27;;;;;;;20.77;13.45;;;;;;;;;;5092089;28;20221;-76
2021/01/25 07:44:01;;;;;;;18.42;13.25;;;;;;;;;;5092083;28;20227;-76
2021/01/25 07:46:34;;;;;;;18.83;13.95;;;;;;;;;;5088108;28;20201;-76
2021/01/25 07:49:07;;;;;;;16.77;13.20;;;;;;;;;;5087915;28;20285;-76
2021/01/25 07:51:41;;;;;;;19.25;14.00;;;;;;;;;;5090141;28;20208;-76
2021/01/25 07:54:15;;;;;;;24.10;15.60;;;;;;;;;;5089035;28;20184;-75
2021/01/25 07:56:48;;;;;;;18.63;14.40;;;;;;;;;;5089079;28;20194;-75
2021/01/25 07:59:22;;;;;;;24.70;14.88;;;;;;;;;;5088101;28;20251;-76
2021/01/25 08:01:57;;;;;;;18.38;13.43;;;;;;;;;;5092157;28;20224;-75
2021/01/25 08:04:39;;;;;;;23.45;14.63;;;;;;;;;;5090154;28;20224;-74
2021/01/25 08:07:06;;;;;;;19.55;13.82;;;;;;;;;;5090886;28;20543;-75
2021/01/25 08:09:39;;;;;;;22.25;15.50;;;;;;;;;;5085758;28;20289;-75
2021/01/25 08:12:14;;;;;;;17.55;13.68;;;;;;;;;;5088185;28;20216;-76
2021/01/25 08:14:50;;;;;;;25.17;13.90;;;;;;;;;;5088618;28;20200;-75
2021/01/25 08:17:29;;;;;;;18.75;13.38;;;;;;;;;;5089406;28;20198;-76
2021/01/25 08:20:09;;;;;;;19.63;14.10;;;;;;;;;;5090406;28;20201;-75
2021/01/25 08:22:43;;;;;;;19.42;14.13;;;;;;;;;;5093570;28;20639;-75
2021/01/25 08:25:17;;;;;;;21.27;14.38;;;;;;;;;;5094086;28;20261;-75
2021/01/25 08:27:56;;;;;;;18.10;12.93;;;;;;;;;;5095630;28;20204;-76
2021/01/25 08:30:37;;;;;;;22.02;14.98;;;;;;;;;;5093495;28;20280;-75
2021/01/25 08:33:11;;;;;;;19.67;14.73;;;;;;;;;;5090826;28;20690;-76
2021/01/25 08:35:53;;;;;;;23.13;15.40;;;;;;;;;;5090560;28;20675;-76
2021/01/25 08:38:27;;;;;;;19.88;12.90;;;;;;;;;;5091365;28;20192;-76
2021/01/25 08:41:01;;;;;;;23.52;15.73;;;;;;;;;;5092529;28;20224;-74
2021/01/25 08:43:41;;;;;;;23.05;14.50;;;;;;;;;;5092584;28;20584;-75
2021/01/25 08:46:15;;;;;;;18.65;13.10;;;;;;;;;;5090739;28;20286;-75
2021/01/25 08:48:48;;;;;;;21.27;14.43;;;;;;;;;;5092359;28;20207;-76
2021/01/25 08:51:28;;;;;;;20.05;14.90;;;;;;;;;;5092507;28;20243;-76
2021/01/25 08:54:02;;;;;;;21.65;16.10;;;;;;;;;;5093225;28;20202;-75
2021/01/25 08:56:36;;;;;;;18.00;12.60;;;;;;;;;;5093101;28;20236;-76
2021/01/25 08:59:10;;;;;;;20.98;14.60;;;;;;;;;;5094918;28;20193;-75
2021/01/25 09:01:45;;;;;;;23.13;15.18;;;;;;;;;;5094649;28;20293;-76
2021/01/25 09:04:17;;;;;;;22.30;15.45;;;;;;;;;;5095113;28;20309;-76
2021/01/25 09:06:52;;;;;;;22.33;15.55;;;;;;;;;;5092513;28;20622;-75
2021/01/25 09:09:25;;;;;;;22.38;15.65;;;;;;;;;;5087783;28;20229;-75
2021/01/25 09:11:57;;;;;;;23.35;16.50;;;;;;;;;;5091599;28;20300;-75
2021/01/25 09:14:30;;;;;;;29.42;23.08;;;;;;;;;;5091776;28;20196;-76
2021/01/25 09:17:04;;;;;;;29.73;24.08;;;;;;;;;;5092683;28;20473;-75
2021/01/25 09:19:37;;;;;;;35.13;29.23;;;;;;;;;;5093619;28;20284;-75
2021/01/25 09:22:11;;;;;;;62.67;50.42;;;;;;;;;;5094202;28;20789;-75
2021/01/25 09:24:44;;;;;;;76.18;58.72;;;;;;;;;;5092658;28;20568;-75
2021/01/25 09:27:17;;;;;;;59.58;49.17;;;;;;;;;;5093987;28;20197;-76
2021/01/25 09:29:50;;;;;;;43.00;35.28;;;;;;;;;;5090907;28;20208;-72
2021/01/25 09:32:23;;;;;;;28.70;22.05;;;;;;;;;;5091847;28;20307;-76
2021/01/25 09:34:56;;;;;;;30.45;21.63;;;;;;;;;;5092041;28;20190;-75
2021/01/25 09:37:29;;;;;;;35.15;23.67;;;;;;;;;;5092663;28;20198;-76
2021/01/25 09:40:03;;;;;;;27.42;20.00;;;;;;;;;;5092534;28;20199;-76
2021/01/25 09:42:36;;;;;;;27.92;18.63;;;;;;;;;;5092546;28;20219;-74
2021/01/25 09:45:09;;;;;;;26.02;17.98;;;;;;;;;;5089563;28;20678;-76
2021/01/25 09:47:43;;;;;;;27.85;18.85;;;;;;;;;;5090186;28;20309;-75
2021/01/25 09:50:17;;;;;;;27.98;18.17;;;;;;;;;;5090319;28;20190;-75
2021/01/25 09:52:50;;;;;;;30.63;18.20;;;;;;;;;;5091623;28;20253;-76
2021/01/25 09:55:22;;;;;;;29.02;18.67;;;;;;;;;;5092278;28;20654;-76
2021/01/25 09:57:56;;;;;;;24.77;17.20;;;;;;;;;;5093131;28;20225;-76
2021/01/25 10:00:29;;;;;;;21.67;15.15;;;;;;;;;;5093647;28;20201;-76
2021/01/25 10:03:02;;;;;;;22.33;15.48;;;;;;;;;;5093674;28;20666;-75
2021/01/25 10:05:35;;;;;;;26.00;17.20;;;;;;;;;;5076573;28;20308;-75
2021/01/25 10:08:08;;;;;;;23.45;16.40;;;;;;;;;;5087416;28;20704;-76
2021/01/25 10:10:41;;;;;;;25.83;17.88;;;;;;;;;;5090550;28;20203;-76
2021/01/25 10:13:14;;;;;;;28.48;17.73;;;;;;;;;;5092557;28;20928;-76
2021/01/25 10:15:47;;;;;;;31.20;19.45;;;;;;;;;;5091969;28;20200;-76
2021/01/25 10:18:20;;;;;;;31.85;19.67;;;;;;;;;;5091735;28;20289;-74
2021/01/25 10:20:53;;;;;;;25.98;17.20;;;;;;;;;;5093759;28;20293;-75
2021/01/25 10:23:26;;;;;;;31.00;18.95;;;;;;;;;;5093806;28;20314;-75
2021/01/25 10:25:59;;;;;;;27.40;17.90;;;;;;;;;;5093541;28;20219;-75
2021/01/25 10:28:32;;;;;;;27.67;19.60;;;;;;;;;;5092188;28;20244;-75
2021/01/25 10:31:05;;;;;;;34.75;19.13;;;;;;;;;;5088849;28;21131;-75
2021/01/25 10:33:39;;;;;;;24.98;16.90;;;;;;;;;;5090230;28;20214;-75
2021/01/25 10:36:11;;;;;;;30.98;19.70;;;;;;;;;;5090707;28;20196;-75
2021/01/25 10:38:44;;;;;;;28.63;20.00;;;;;;;;;;5090944;28;20609;-74
2021/01/25 10:41:17;;;;;;;29.55;16.13;;;;;;;;;;5091328;28;20280;-75
2021/01/25 10:43:50;;;;;;;23.08;16.38;;;;;;;;;;5092141;28;20668;-74
2021/01/25 10:46:23;;;;;;;22.48;16.60;;;;;;;;;;5093150;28;20284;-74
2021/01/25 10:48:56;;;;;;;21.65;14.02;;;;;;;;;;5093111;28;20195;-74
2021/01/25 10:51:29;;;;;;;24.10;15.70;;;;;;;;;;5091503;28;20284;-74
2021/01/25 10:54:02;;;;;;;22.83;16.20;;;;;;;;;;5088678;28;20190;-75
2021/01/25 10:56:35;;;;;;;20.75;14.73;;;;;;;;;;5089833;28;20202;-75
2021/01/25 10:59:07;;;;;;;21.40;14.68;;;;;;;;;;5089093;28;20193;-74
2021/01/25 11:01:40;;;;;;;21.17;14.13;;;;;;;;;;5089457;28;20742;-75
2021/01/25 11:04:14;;;;;;;22.25;14.65;;;;;;;;;;5091112;28;20280;-75
2021/01/25 11:06:48;;;;;;;19.20;13.90;;;;;;;;;;5092587;28;20198;-75
2021/01/25 11:09:27;;;;;;;23.92;15.45;;;;;;;;;;5078276;28;20229;-75
2021/01/25 11:12:00;;;;;;;21.55;15.20;;;;;;;;;;5072091;28;20221;-74
2021/01/25 11:14:27;;;;;;;20.13;14.88;;;;;;;;;;5069455;28;20199;-74
2021/01/25 11:16:54;;;;;;;20.92;14.77;;;;;;;;;;5067691;28;20483;-74
2021/01/25 11:19:22;;;;;;;21.38;13.85;;;;;;;;;;5067956;28;20856;-75
2021/01/25 11:21:55;;;;;;;23.77;15.65;;;;;;;;;;5070218;28;20253;-76
2021/01/25 11:24:28;;;;;;;21.52;15.27;;;;;;;;;;5069880;28;20216;-77
2021/01/25 11:27:04;;;;;;;19.55;13.20;;;;;;;;;;5071082;28;20209;-76
2021/01/25 11:29:37;;;;;;;20.17;15.27;;;;;;;;;;5071819;28;20670;-75
2021/01/25 11:32:10;;;;;;;20.88;15.07;;;;;;;;;;5071817;28;20236;-75
2021/01/25 11:34:48;;;;;;;20.45;14.20;;;;;;;;;;5071996;28;20198;-75
2021/01/25 11:37:21;;;;;;;18.10;14.18;;;;;;;;;;5067692;28;20247;-75
2021/01/25 11:39:53;;;;;;;22.27;14.85;;;;;;;;;;5067962;28;20197;-75
2021/01/25 11:42:26;;;;;;;18.98;14.10;;;;;;;;;;5069586;28;20316;-76
2021/01/25 11:44:59;;;;;;;19.30;13.20;;;;;;;;;;5069513;28;20583;-75
2021/01/25 11:47:32;;;;;;;20.15;15.15;;;;;;;;;;5069793;28;20207;-76
2021/01/25 11:50:06;;;;;;;22.23;15.02;;;;;;;;;;5071151;28;20286;-75
2021/01/25 11:52:36;;;;;;;22.52;15.25;;;;;;;;;;5071502;28;20587;-75
2021/01/25 11:55:09;;;;;;;28.85;16.95;;;;;;;;;;5071577;28;20195;-75
2021/01/25 11:57:42;;;;;;;20.85;15.65;;;;;;;;;;5074123;28;20570;-76
2021/01/25 12:00:15;;;;;;;27.60;16.67;;;;;;;;;;5072436;28;20555;-76
2021/01/25 12:02:48;;;;;;;27.48;18.02;;;;;;;;;;5071627;28;20542;-75
2021/01/25 12:05:21;;;;;;;26.75;17.73;;;;;;;;;;5072940;28;20327;-75
2021/01/25 12:08:01;;;;;;;27.70;18.95;;;;;;;;;;5073610;28;20205;-75
2021/01/25 12:10:28;;;;;;;27.40;18.80;;;;;;;;;;5052891;28;20217;-75
2021/01/25 12:12:55;;;;;;;24.27;17.17;;;;;;;;;;5050372;28;20229;-75
2021/01/25 12:15:22;;;;;;;22.67;15.48;;;;;;;;;;5047951;28;20252;-75
2021/01/25 12:17:49;;;;;;;25.95;16.60;;;;;;;;;;5048831;28;20209;-75
2021/01/25 12:20:16;;;;;;;21.35;16.30;;;;;;;;;;5050623;28;20195;-75
2021/01/25 12:22:44;;;;;;;24.55;17.80;;;;;;;;;;5049532;28;20219;-75
2021/01/25 12:25:11;;;;;;;24.05;16.92;;;;;;;;;;5050298;28;20260;-76
2021/01/25 12:27:38;;;;;;;23.52;17.52;;;;;;;;;;5051385;28;20591;-75
2021/01/25 12:30:07;;;;;;;27.70;17.63;;;;;;;;;;5045545;28;20192;-75
2021/01/25 12:32:34;;;;;;;21.70;16.25;;;;;;;;;;5031312;28;20259;-75
2021/01/25 12:35:01;;;;;;;23.77;17.50;;;;;;;;;;5031797;28;20734;-75
2021/01/25 12:37:27;;;;;;;22.80;17.40;;;;;;;;;;5044959;28;20225;-75
2021/01/25 12:39:55;;;;;;;29.35;19.10;;;;;;;;;;5047919;28;20198;-75
2021/01/25 12:42:22;;;;;;;26.48;18.63;;;;;;;;;;5028868;28;20275;-72
2021/01/25 12:44:49;;;;;;;24.50;18.05;;;;;;;;;;5029587;28;20322;-73
2021/01/25 12:47:16;;;;;;;28.50;19.27;;;;;;;;;;5038600;28;20322;-73
2021/01/25 12:49:42;;;;;;;29.85;18.25;;;;;;;;;;5044090;28;20206;-72
2021/01/25 12:52:09;;;;;;;29.73;18.30;;;;;;;;;;5047131;28;20221;-74
2021/01/25 12:54:36;;;;;;;26.55;17.20;;;;;;;;;;5048956;28;20275;-71
2021/01/25 12:57:04;;;;;;;22.70;18.67;;;;;;;;;;5049810;28;20560;-74
2021/01/25 12:59:31;;;;;;;28.33;20.17;;;;;;;;;;5045047;28;20202;-73
2021/01/25 13:01:57;;;;;;;25.13;18.42;;;;;;;;;;5049992;28;20219;-73
2021/01/25 13:04:24;;;;;;;27.15;18.42;;;;;;;;;;5051396;28;20231;-74
2021/01/25 13:06:52;;;;;;;26.23;19.00;;;;;;;;;;5051871;28;20209;-72
2021/01/25 13:09:19;;;;;;;27.58;20.48;;;;;;;;;;5072743;28;20226;-72
2021/01/25 13:11:51;;;;;;;31.40;22.02;;;;;;;;;;5091396;28;20225;-73
2021/01/25 13:14:19;;;;;;;29.10;20.92;;;;;;;;;;5089269;28;20200;-72
2021/01/25 13:16:48;;;;;;;30.13;21.98;;;;;;;;;;5091321;28;20202;-73
2021/01/25 13:19:14;;;;;;;29.23;20.83;;;;;;;;;;5092043;28;20292;-71
2021/01/25 13:21:47;;;;;;;33.15;21.88;;;;;;;;;;5091316;28;20288;-73
2021/01/25 13:24:20;;;;;;;29.88;21.02;;;;;;;;;;5084981;28;20205;-74
2021/01/25 13:26:53;;;;;;;31.33;20.88;;;;;;;;;;5088782;28;20188;-75
2021/01/25 13:29:26;;;;;;;36.17;23.90;;;;;;;;;;5088118;28;20192;-74
2021/01/25 13:31:59;;;;;;;31.67;22.13;;;;;;;;;;5090945;28;20201;-72
2021/01/25 13:34:33;;;;;;;30.83;22.15;;;;;;;;;;5090696;28;20208;-72
2021/01/25 13:37:00;;;;;;;33.17;23.75;;;;;;;;;;5091105;28;20335;-73
2021/01/25 13:39:32;;;;;;;31.88;22.17;;;;;;;;;;5083911;28;20205;-71
2021/01/25 13:42:00;;;;;;;29.27;21.50;;;;;;;;;;5093927;28;20304;-74
2021/01/25 13:44:34;;;;;;;33.55;23.02;;;;;;;;;;5092503;28;22172;-73
2021/01/25 13:47:07;;;;;;;31.48;22.63;;;;;;;;;;5093779;28;20196;-74
2021/01/25 13:49:40;;;;;;;34.13;24.77;;;;;;;;;;5090864;28;20244;-72
2021/01/25 13:52:13;;;;;;;31.05;21.77;;;;;;;;;;5089629;28;20248;-72
2021/01/25 13:54:45;;;;;;;32.28;21.83;;;;;;;;;;5091024;28;20240;-73
2021/01/25 13:57:12;;;;;;;38.70;22.65;;;;;;;;;;5091915;28;20211;-75
2021/01/25 13:59:40;;;;;;;30.40;20.15;;;;;;;;;;5091542;28;20196;-73
2021/01/25 14:02:13;;;;;;;33.00;22.02;;;;;;;;;;5081296;28;20213;-74
2021/01/25 14:04:45;;;;;;;28.90;22.05;;;;;;;;;;5093866;28;20225;-73
2021/01/25 14:07:18;;;;;;;28.80;21.08;;;;;;;;;;5093779;28;20204;-74
2021/01/25 14:09:51;;;;;;;31.70;20.45;;;;;;;;;;5092267;28;20510;-73
2021/01/25 14:12:24;;;;;;;30.83;22.95;;;;;;;;;;5089469;28;20220;-75
2021/01/25 14:14:57;;;;;;;25.90;20.05;;;;;;;;;;5087781;28;20200;-74
2021/01/25 14:17:30;;;;;;;28.75;22.00;;;;;;;;;;5089677;28;20292;-72
2021/01/25 14:20:04;;;;;;;26.25;18.13;;;;;;;;;;5088836;28;20538;-73
2021/01/25 14:22:37;;;;;;;34.00;19.98;;;;;;;;;;5088466;28;20236;-75
2021/01/25 14:25:10;;;;;;;28.70;20.40;;;;;;;;;;5090554;28;20766;-73
2021/01/25 14:27:43;;;;;;;34.47;20.30;;;;;;;;;;5091287;28;20629;-74
2021/01/25 14:30:19;;;;;;;32.97;23.90;;;;;;;;;;5093695;28;20202;-72
2021/01/25 14:32:52;;;;;;;33.35;24.40;;;;;;;;;;5071835;28;20224;-76
2021/01/25 14:35:25;;;;;;;27.35;20.73;;;;;;;;;;5086338;28;20199;-73
2021/01/25 14:37:58;;;;;;;30.70;20.83;;;;;;;;;;5089381;28;20617;-72
2021/01/25 14:40:31;;;;;;;25.48;20.02;;;;;;;;;;5091232;28;20574;-74
2021/01/25 14:43:04;;;;;;;25.83;21.38;;;;;;;;;;5090824;28;20270;-75
2021/01/25 14:45:37;;;;;;;28.80;20.65;;;;;;;;;;5090594;28;20232;-73
2021/01/25 14:48:11;;;;;;;25.90;19.38;;;;;;;;;;5077399;28;20610;-76
2021/01/25 14:50:44;;;;;;;28.02;19.38;;;;;;;;;;5092789;28;20255;-75
2021/01/25 14:53:17;;;;;;;28.80;20.65;;;;;;;;;;5093646;28;20214;-76
2021/01/25 14:55:50;;;;;;;23.42;16.65;;;;;;;;;;5092448;28;20451;-72